sensor_id;sensor_type;location;lat;lon;timestamp;P1;durP1;ratioP1;P2;durP2;ratioP2
4305;SDS011;2166;49.926;8.608;2022-08-01T00:00:05;4.22;;;1.45;;
4305;SDS011;2166;49.926;8.608;2022-08-01T00:02:35;3.65;;;1.77;;
4305;SDS011;2166;49.926;8.608;2022-08-01T00:05:07;6.03;;;1.95;;
4305;SDS011;2166;49.926;8.608;2022-08-01T00:07:36;2.42;;;1.50;;
4305;SDS011;2166;49.926;8.608;2022-08-01T00:10:07;2.05;;;1.67;;
4305;SDS011;2166;49.926;8.608;2022-08-01T00:12:36;4.03;;;1.80;;
4305;SDS011;2166;49.926;8.608;2022-08-01T00:15:05;4.35;;;1.83;;
4305;SDS011;2166;49.926;8.608;2022-08-01T00:17:35;2.08;;;1.75;;
4305;SDS011;2166;49.926;8.608;2022-08-01T00:20:04;2.47;;;1.45;;
4305;SDS011;2166;49.926;8.608;2022-08-01T00:22:36;4.38;;;1.70;;
4305;SDS011;2166;49.926;8.608;2022-08-01T00:25:05;4.65;;;2.53;;
4305;SDS011;2166;49.926;8.608;2022-08-01T00:27:33;3.95;;;1.65;;
4305;SDS011;2166;49.926;8.608;2022-08-01T00:30:03;3.10;;;1.70;;
4305;SDS011;2166;49.926;8.608;2022-08-01T00:32:40;4.97;;;1.90;;
4305;SDS011;2166;49.926;8.608;2022-08-01T00:35:10;2.00;;;1.80;;
4305;SDS011;2166;49.926;8.608;2022-08-01T00:37:39;2.17;;;1.65;;
4305;SDS011;2166;49.926;8.608;2022-08-01T00:40:07;4.15;;;1.92;;
4305;SDS011;2166;49.926;8.608;2022-08-01T00:42:36;3.75;;;1.52;;
4305;SDS011;2166;49.926;8.608;2022-08-01T00:45:09;2.47;;;1.40;;
4305;SDS011;2166;49.926;8.608;2022-08-01T00:47:37;2.95;;;1.70;;
4305;SDS011;2166;49.926;8.608;2022-08-01T00:50:06;2.22;;;1.40;;
4305;SDS011;2166;49.926;8.608;2022-08-01T00:52:36;6.88;;;1.73;;
4305;SDS011;2166;49.926;8.608;2022-08-01T00:55:07;2.13;;;1.58;;
4305;SDS011;2166;49.926;8.608;2022-08-01T00:57:40;2.35;;;1.65;;
4305;SDS011;2166;49.926;8.608;2022-08-01T01:00:28;4.38;;;2.13;;
4305;SDS011;2166;49.926;8.608;2022-08-01T01:03:17;3.75;;;1.45;;
4305;SDS011;2166;49.926;8.608;2022-08-01T01:05:48;2.05;;;1.60;;
4305;SDS011;2166;49.926;8.608;2022-08-01T01:08:27;3.40;;;1.50;;
4305;SDS011;2166;49.926;8.608;2022-08-01T01:11:01;4.72;;;1.50;;
4305;SDS011;2166;49.926;8.608;2022-08-01T01:13:37;7.22;;;1.50;;
4305;SDS011;2166;49.926;8.608;2022-08-01T01:16:17;4.75;;;1.50;;
4305;SDS011;2166;49.926;8.608;2022-08-01T01:18:47;5.55;;;1.55;;
4305;SDS011;2166;49.926;8.608;2022-08-01T01:21:30;3.33;;;1.30;;
4305;SDS011;2166;49.926;8.608;2022-08-01T01:24:04;3.33;;;1.60;;
4305;SDS011;2166;49.926;8.608;2022-08-01T01:26:45;4.10;;;1.30;;
4305;SDS011;2166;49.926;8.608;2022-08-01T01:29:23;2.72;;;1.70;;
4305;SDS011;2166;49.926;8.608;2022-08-01T01:32:17;1.20;;;1.10;;
4305;SDS011;2166;49.926;8.608;2022-08-01T01:34:56;3.42;;;1.60;;
4305;SDS011;2166;49.926;8.608;2022-08-01T01:37:26;4.13;;;1.75;;
4305;SDS011;2166;49.926;8.608;2022-08-01T01:39:57;2.20;;;1.20;;
4305;SDS011;2166;49.926;8.608;2022-08-01T01:42:27;4.28;;;1.58;;
4305;SDS011;2166;49.926;8.608;2022-08-01T01:44:57;2.25;;;1.40;;
4305;SDS011;2166;49.926;8.608;2022-08-01T01:47:27;3.70;;;1.65;;
4305;SDS011;2166;49.926;8.608;2022-08-01T01:49:57;4.32;;;1.65;;
4305;SDS011;2166;49.926;8.608;2022-08-01T01:52:27;4.03;;;1.33;;
4305;SDS011;2166;49.926;8.608;2022-08-01T01:54:57;3.47;;;1.38;;
4305;SDS011;2166;49.926;8.608;2022-08-01T01:57:26;1.98;;;1.50;;
4305;SDS011;2166;49.926;8.608;2022-08-01T01:59:58;3.25;;;1.67;;
4305;SDS011;2166;49.926;8.608;2022-08-01T02:02:30;1.92;;;1.52;;
4305;SDS011;2166;49.926;8.608;2022-08-01T02:04:59;3.80;;;1.80;;
4305;SDS011;2166;49.926;8.608;2022-08-01T02:07:28;2.50;;;1.60;;
4305;SDS011;2166;49.926;8.608;2022-08-01T02:09:57;1.90;;;1.70;;
4305;SDS011;2166;49.926;8.608;2022-08-01T02:12:29;3.92;;;1.70;;
4305;SDS011;2166;49.926;8.608;2022-08-01T02:14:59;3.22;;;1.70;;
4305;SDS011;2166;49.926;8.608;2022-08-01T02:17:29;2.08;;;1.60;;
4305;SDS011;2166;49.926;8.608;2022-08-01T02:19:59;1.98;;;1.70;;
4305;SDS011;2166;49.926;8.608;2022-08-01T02:22:28;4.70;;;1.60;;
4305;SDS011;2166;49.926;8.608;2022-08-01T02:25:00;3.45;;;2.13;;
4305;SDS011;2166;49.926;8.608;2022-08-01T02:27:33;3.70;;;1.83;;
4305;SDS011;2166;49.926;8.608;2022-08-01T02:30:08;3.88;;;1.58;;
4305;SDS011;2166;49.926;8.608;2022-08-01T02:32:41;6.45;;;2.00;;
4305;SDS011;2166;49.926;8.608;2022-08-01T02:35:13;3.42;;;1.70;;
4305;SDS011;2166;49.926;8.608;2022-08-01T02:37:47;3.17;;;1.40;;
4305;SDS011;2166;49.926;8.608;2022-08-01T02:40:17;3.60;;;1.63;;
4305;SDS011;2166;49.926;8.608;2022-08-01T02:42:47;2.88;;;1.50;;
4305;SDS011;2166;49.926;8.608;2022-08-01T02:45:20;2.80;;;1.55;;
4305;SDS011;2166;49.926;8.608;2022-08-01T02:47:53;8.30;;;1.88;;
4305;SDS011;2166;49.926;8.608;2022-08-01T02:50:26;2.65;;;1.20;;
4305;SDS011;2166;49.926;8.608;2022-08-01T02:52:57;5.47;;;1.38;;
4305;SDS011;2166;49.926;8.608;2022-08-01T02:55:26;1.20;;;1.10;;
4305;SDS011;2166;49.926;8.608;2022-08-01T02:57:57;3.60;;;1.30;;
4305;SDS011;2166;49.926;8.608;2022-08-01T03:00:29;2.15;;;1.40;;
4305;SDS011;2166;49.926;8.608;2022-08-01T03:02:59;8.00;;;1.40;;
4305;SDS011;2166;49.926;8.608;2022-08-01T03:05:28;5.13;;;1.30;;
4305;SDS011;2166;49.926;8.608;2022-08-01T03:07:59;2.60;;;1.13;;
4305;SDS011;2166;49.926;8.608;2022-08-01T03:10:29;2.63;;;1.17;;
4305;SDS011;2166;49.926;8.608;2022-08-01T03:13:00;2.85;;;1.50;;
4305;SDS011;2166;49.926;8.608;2022-08-01T03:15:31;2.75;;;1.33;;
4305;SDS011;2166;49.926;8.608;2022-08-01T03:18:02;3.95;;;1.15;;
4305;SDS011;2166;49.926;8.608;2022-08-01T03:20:32;2.88;;;1.20;;
4305;SDS011;2166;49.926;8.608;2022-08-01T03:23:02;2.55;;;1.05;;
4305;SDS011;2166;49.926;8.608;2022-08-01T03:25:32;1.25;;;0.93;;
4305;SDS011;2166;49.926;8.608;2022-08-01T03:28:04;3.78;;;1.08;;
4305;SDS011;2166;49.926;8.608;2022-08-01T03:30:36;4.85;;;1.00;;
4305;SDS011;2166;49.926;8.608;2022-08-01T03:33:07;1.55;;;1.00;;
4305;SDS011;2166;49.926;8.608;2022-08-01T03:35:48;1.98;;;1.40;;
4305;SDS011;2166;49.926;8.608;2022-08-01T03:38:21;2.67;;;1.30;;
4305;SDS011;2166;49.926;8.608;2022-08-01T03:40:52;1.58;;;1.15;;
4305;SDS011;2166;49.926;8.608;2022-08-01T03:43:26;4.70;;;1.25;;
4305;SDS011;2166;49.926;8.608;2022-08-01T03:46:01;2.17;;;1.40;;
4305;SDS011;2166;49.926;8.608;2022-08-01T03:48:35;1.55;;;1.13;;
4305;SDS011;2166;49.926;8.608;2022-08-01T03:51:06;2.70;;;1.40;;
4305;SDS011;2166;49.926;8.608;2022-08-01T03:53:36;2.20;;;1.35;;
4305;SDS011;2166;49.926;8.608;2022-08-01T03:56:08;4.55;;;1.65;;
4305;SDS011;2166;49.926;8.608;2022-08-01T03:58:38;5.63;;;1.50;;
4305;SDS011;2166;49.926;8.608;2022-08-01T04:01:08;3.53;;;1.60;;
4305;SDS011;2166;49.926;8.608;2022-08-01T04:03:41;3.65;;;1.67;;
4305;SDS011;2166;49.926;8.608;2022-08-01T04:06:10;3.65;;;1.80;;
4305;SDS011;2166;49.926;8.608;2022-08-01T04:08:40;3.08;;;1.60;;
4305;SDS011;2166;49.926;8.608;2022-08-01T04:11:08;3.35;;;1.48;;
4305;SDS011;2166;49.926;8.608;2022-08-01T04:13:38;2.83;;;1.67;;
4305;SDS011;2166;49.926;8.608;2022-08-01T04:16:11;3.90;;;1.50;;
4305;SDS011;2166;49.926;8.608;2022-08-01T04:18:39;3.95;;;1.30;;
4305;SDS011;2166;49.926;8.608;2022-08-01T04:21:08;2.53;;;1.60;;
4305;SDS011;2166;49.926;8.608;2022-08-01T04:23:36;3.33;;;1.70;;
4305;SDS011;2166;49.926;8.608;2022-08-01T04:26:07;3.65;;;1.60;;
4305;SDS011;2166;49.926;8.608;2022-08-01T04:28:38;1.85;;;1.50;;
4305;SDS011;2166;49.926;8.608;2022-08-01T04:31:09;3.53;;;2.05;;
4305;SDS011;2166;49.926;8.608;2022-08-01T04:33:40;3.22;;;1.85;;
4305;SDS011;2166;49.926;8.608;2022-08-01T04:36:12;2.03;;;1.77;;
4305;SDS011;2166;49.926;8.608;2022-08-01T04:38:42;5.53;;;2.15;;
4305;SDS011;2166;49.926;8.608;2022-08-01T04:41:16;5.80;;;1.40;;
4305;SDS011;2166;49.926;8.608;2022-08-01T04:43:46;3.00;;;1.50;;
4305;SDS011;2166;49.926;8.608;2022-08-01T04:46:16;4.85;;;1.58;;
4305;SDS011;2166;49.926;8.608;2022-08-01T04:48:46;1.55;;;1.30;;
4305;SDS011;2166;49.926;8.608;2022-08-01T04:51:16;2.08;;;1.50;;
4305;SDS011;2166;49.926;8.608;2022-08-01T04:53:48;6.30;;;1.58;;
4305;SDS011;2166;49.926;8.608;2022-08-01T04:56:17;3.70;;;1.33;;
4305;SDS011;2166;49.926;8.608;2022-08-01T04:58:47;3.30;;;1.58;;
4305;SDS011;2166;49.926;8.608;2022-08-01T05:01:49;2.38;;;1.30;;
4305;SDS011;2166;49.926;8.608;2022-08-01T05:04:17;2.90;;;1.20;;
4305;SDS011;2166;49.926;8.608;2022-08-01T05:06:45;1.98;;;1.30;;
4305;SDS011;2166;49.926;8.608;2022-08-01T05:09:14;1.65;;;1.20;;
4305;SDS011;2166;49.926;8.608;2022-08-01T05:11:42;3.67;;;1.30;;
4305;SDS011;2166;49.926;8.608;2022-08-01T05:14:10;4.85;;;1.38;;
4305;SDS011;2166;49.926;8.608;2022-08-01T05:16:38;2.13;;;1.38;;
4305;SDS011;2166;49.926;8.608;2022-08-01T05:19:09;3.08;;;1.50;;
4305;SDS011;2166;49.926;8.608;2022-08-01T05:21:37;3.83;;;1.38;;
4305;SDS011;2166;49.926;8.608;2022-08-01T05:24:05;3.88;;;1.27;;
4305;SDS011;2166;49.926;8.608;2022-08-01T05:26:34;2.00;;;0.88;;
4305;SDS011;2166;49.926;8.608;2022-08-01T05:29:02;2.03;;;1.17;;
4305;SDS011;2166;49.926;8.608;2022-08-01T05:31:30;4.53;;;1.55;;
4305;SDS011;2166;49.926;8.608;2022-08-01T05:34:00;3.40;;;1.08;;
4305;SDS011;2166;49.926;8.608;2022-08-01T05:36:30;3.42;;;1.70;;
4305;SDS011;2166;49.926;8.608;2022-08-01T05:38:58;4.60;;;1.40;;
4305;SDS011;2166;49.926;8.608;2022-08-01T05:41:26;6.18;;;1.55;;
4305;SDS011;2166;49.926;8.608;2022-08-01T05:43:54;9.20;;;1.63;;
4305;SDS011;2166;49.926;8.608;2022-08-01T05:46:22;5.57;;;1.48;;
4305;SDS011;2166;49.926;8.608;2022-08-01T05:48:53;5.70;;;1.23;;
4305;SDS011;2166;49.926;8.608;2022-08-01T05:51:21;8.55;;;1.55;;
4305;SDS011;2166;49.926;8.608;2022-08-01T05:53:51;8.70;;;1.52;;
4305;SDS011;2166;49.926;8.608;2022-08-01T05:56:19;5.25;;;1.75;;
4305;SDS011;2166;49.926;8.608;2022-08-01T05:58:48;5.45;;;1.50;;
4305;SDS011;2166;49.926;8.608;2022-08-01T06:01:17;5.97;;;1.63;;
4305;SDS011;2166;49.926;8.608;2022-08-01T06:03:46;4.82;;;1.85;;
4305;SDS011;2166;49.926;8.608;2022-08-01T06:06:14;12.27;;;3.92;;
4305;SDS011;2166;49.926;8.608;2022-08-01T06:08:43;9.93;;;4.43;;
4305;SDS011;2166;49.926;8.608;2022-08-01T06:11:12;8.50;;;2.13;;
4305;SDS011;2166;49.926;8.608;2022-08-01T06:13:41;4.47;;;2.25;;
4305;SDS011;2166;49.926;8.608;2022-08-01T06:16:14;5.65;;;2.53;;
4305;SDS011;2166;49.926;8.608;2022-08-01T06:18:42;6.18;;;1.83;;
4305;SDS011;2166;49.926;8.608;2022-08-01T06:21:10;2.92;;;1.40;;
4305;SDS011;2166;49.926;8.608;2022-08-01T06:23:38;2.65;;;1.00;;
4305;SDS011;2166;49.926;8.608;2022-08-01T06:26:07;2.28;;;1.10;;
4305;SDS011;2166;49.926;8.608;2022-08-01T06:28:37;2.80;;;1.20;;
4305;SDS011;2166;49.926;8.608;2022-08-01T06:31:05;4.25;;;1.20;;
4305;SDS011;2166;49.926;8.608;2022-08-01T06:33:34;4.80;;;1.40;;
4305;SDS011;2166;49.926;8.608;2022-08-01T06:36:02;6.03;;;1.20;;
4305;SDS011;2166;49.926;8.608;2022-08-01T06:38:31;5.18;;;1.45;;
4305;SDS011;2166;49.926;8.608;2022-08-01T06:40:59;2.35;;;1.05;;
4305;SDS011;2166;49.926;8.608;2022-08-01T06:43:27;9.05;;;1.10;;
4305;SDS011;2166;49.926;8.608;2022-08-01T06:45:57;5.30;;;1.00;;
4305;SDS011;2166;49.926;8.608;2022-08-01T06:48:25;4.20;;;0.90;;
4305;SDS011;2166;49.926;8.608;2022-08-01T06:50:53;6.20;;;0.82;;
4305;SDS011;2166;49.926;8.608;2022-08-01T06:53:35;2.47;;;0.90;;
4305;SDS011;2166;49.926;8.608;2022-08-01T06:56:04;5.45;;;1.15;;
4305;SDS011;2166;49.926;8.608;2022-08-01T06:58:33;1.63;;;1.10;;
4305;SDS011;2166;49.926;8.608;2022-08-01T07:01:03;1.27;;;0.80;;
4305;SDS011;2166;49.926;8.608;2022-08-01T07:03:36;3.10;;;1.13;;
4305;SDS011;2166;49.926;8.608;2022-08-01T07:06:20;6.78;;;1.45;;
4305;SDS011;2166;49.926;8.608;2022-08-01T07:08:49;3.15;;;0.93;;
4305;SDS011;2166;49.926;8.608;2022-08-01T07:11:18;2.05;;;0.88;;
4305;SDS011;2166;49.926;8.608;2022-08-01T07:13:47;6.53;;;0.93;;
4305;SDS011;2166;49.926;8.608;2022-08-01T07:16:17;2.92;;;0.90;;
4305;SDS011;2166;49.926;8.608;2022-08-01T07:18:45;5.35;;;1.20;;
4305;SDS011;2166;49.926;8.608;2022-08-01T07:21:14;2.28;;;0.90;;
4305;SDS011;2166;49.926;8.608;2022-08-01T07:24:02;5.53;;;1.05;;
4305;SDS011;2166;49.926;8.608;2022-08-01T07:26:39;1.85;;;0.70;;
4305;SDS011;2166;49.926;8.608;2022-08-01T07:29:19;3.00;;;1.13;;
4305;SDS011;2166;49.926;8.608;2022-08-01T07:31:50;2.45;;;0.93;;
4305;SDS011;2166;49.926;8.608;2022-08-01T07:34:19;1.30;;;0.80;;
4305;SDS011;2166;49.926;8.608;2022-08-01T07:36:48;1.83;;;0.85;;
4305;SDS011;2166;49.926;8.608;2022-08-01T07:39:16;1.38;;;0.90;;
4305;SDS011;2166;49.926;8.608;2022-08-01T07:41:45;7.20;;;1.20;;
4305;SDS011;2166;49.926;8.608;2022-08-01T07:44:32;0.95;;;0.70;;
4305;SDS011;2166;49.926;8.608;2022-08-01T07:47:01;1.42;;;0.70;;
4305;SDS011;2166;49.926;8.608;2022-08-01T07:49:30;1.15;;;0.70;;
4305;SDS011;2166;49.926;8.608;2022-08-01T07:52:05;1.92;;;0.80;;
4305;SDS011;2166;49.926;8.608;2022-08-01T07:54:34;0.95;;;0.60;;
4305;SDS011;2166;49.926;8.608;2022-08-01T07:57:02;1.92;;;0.60;;
4305;SDS011;2166;49.926;8.608;2022-08-01T07:59:31;1.27;;;0.60;;
4305;SDS011;2166;49.926;8.608;2022-08-01T08:01:59;1.48;;;0.73;;
4305;SDS011;2166;49.926;8.608;2022-08-01T08:04:29;2.47;;;0.75;;
4305;SDS011;2166;49.926;8.608;2022-08-01T08:06:57;3.20;;;0.90;;
4305;SDS011;2166;49.926;8.608;2022-08-01T08:09:25;6.00;;;1.05;;
4305;SDS011;2166;49.926;8.608;2022-08-01T08:11:53;1.52;;;0.90;;
4305;SDS011;2166;49.926;8.608;2022-08-01T08:14:22;3.80;;;0.63;;
4305;SDS011;2166;49.926;8.608;2022-08-01T08:16:58;4.72;;;0.93;;
4305;SDS011;2166;49.926;8.608;2022-08-01T08:19:29;2.50;;;0.77;;
4305;SDS011;2166;49.926;8.608;2022-08-01T08:22:04;3.25;;;0.68;;
4305;SDS011;2166;49.926;8.608;2022-08-01T08:24:34;2.75;;;0.80;;
4305;SDS011;2166;49.926;8.608;2022-08-01T08:27:11;2.80;;;0.80;;
4305;SDS011;2166;49.926;8.608;2022-08-01T08:29:39;1.83;;;0.70;;
4305;SDS011;2166;49.926;8.608;2022-08-01T08:32:08;2.28;;;0.70;;
4305;SDS011;2166;49.926;8.608;2022-08-01T08:34:38;1.17;;;0.80;;
4305;SDS011;2166;49.926;8.608;2022-08-01T08:37:06;4.90;;;1.55;;
4305;SDS011;2166;49.926;8.608;2022-08-01T08:39:35;1.83;;;0.80;;
4305;SDS011;2166;49.926;8.608;2022-08-01T08:42:07;5.38;;;1.00;;
4305;SDS011;2166;49.926;8.608;2022-08-01T08:44:36;3.50;;;0.70;;
4305;SDS011;2166;49.926;8.608;2022-08-01T08:47:10;2.97;;;0.90;;
4305;SDS011;2166;49.926;8.608;2022-08-01T08:49:49;1.80;;;0.90;;
4305;SDS011;2166;49.926;8.608;2022-08-01T08:52:20;1.35;;;0.95;;
4305;SDS011;2166;49.926;8.608;2022-08-01T08:54:49;2.50;;;1.20;;
4305;SDS011;2166;49.926;8.608;2022-08-01T08:57:19;1.05;;;0.80;;
4305;SDS011;2166;49.926;8.608;2022-08-01T08:59:48;2.97;;;0.88;;
4305;SDS011;2166;49.926;8.608;2022-08-01T09:02:18;1.45;;;0.80;;
4305;SDS011;2166;49.926;8.608;2022-08-01T09:04:46;7.43;;;1.20;;
4305;SDS011;2166;49.926;8.608;2022-08-01T09:07:17;3.05;;;1.13;;
4305;SDS011;2166;49.926;8.608;2022-08-01T09:09:45;2.70;;;0.88;;
4305;SDS011;2166;49.926;8.608;2022-08-01T09:12:16;1.45;;;0.93;;
4305;SDS011;2166;49.926;8.608;2022-08-01T09:14:46;4.28;;;0.98;;
4305;SDS011;2166;49.926;8.608;2022-08-01T09:17:16;2.40;;;1.17;;
4305;SDS011;2166;49.926;8.608;2022-08-01T09:19:45;2.08;;;1.10;;
4305;SDS011;2166;49.926;8.608;2022-08-01T09:22:16;1.73;;;1.05;;
4305;SDS011;2166;49.926;8.608;2022-08-01T09:24:57;2.22;;;0.95;;
4305;SDS011;2166;49.926;8.608;2022-08-01T09:27:27;0.90;;;0.77;;
4305;SDS011;2166;49.926;8.608;2022-08-01T09:30:06;2.42;;;0.88;;
4305;SDS011;2166;49.926;8.608;2022-08-01T09:32:37;1.83;;;0.82;;
4305;SDS011;2166;49.926;8.608;2022-08-01T09:35:24;2.67;;;0.80;;
4305;SDS011;2166;49.926;8.608;2022-08-01T09:38:10;2.95;;;0.77;;
4305;SDS011;2166;49.926;8.608;2022-08-01T09:40:45;1.88;;;1.00;;
4305;SDS011;2166;49.926;8.608;2022-08-01T09:43:15;3.07;;;0.90;;
4305;SDS011;2166;49.926;8.608;2022-08-01T09:45:44;6.25;;;1.02;;
4305;SDS011;2166;49.926;8.608;2022-08-01T09:48:16;1.48;;;0.80;;
4305;SDS011;2166;49.926;8.608;2022-08-01T09:50:46;1.60;;;0.70;;
4305;SDS011;2166;49.926;8.608;2022-08-01T09:53:16;2.40;;;0.90;;
4305;SDS011;2166;49.926;8.608;2022-08-01T09:56:01;0.95;;;0.70;;
4305;SDS011;2166;49.926;8.608;2022-08-01T09:58:53;1.95;;;0.88;;
4305;SDS011;2166;49.926;8.608;2022-08-01T10:01:28;4.20;;;1.20;;
4305;SDS011;2166;49.926;8.608;2022-08-01T10:04:09;1.88;;;0.80;;
4305;SDS011;2166;49.926;8.608;2022-08-01T10:06:41;1.33;;;0.90;;
4305;SDS011;2166;49.926;8.608;2022-08-01T10:09:12;1.02;;;0.60;;
4305;SDS011;2166;49.926;8.608;2022-08-01T10:11:42;2.45;;;0.90;;
4305;SDS011;2166;49.926;8.608;2022-08-01T10:14:11;1.48;;;0.75;;
4305;SDS011;2166;49.926;8.608;2022-08-01T10:16:44;2.23;;;1.30;;
4305;SDS011;2166;49.926;8.608;2022-08-01T10:19:30;2.15;;;0.90;;
4305;SDS011;2166;49.926;8.608;2022-08-01T10:21:59;1.60;;;0.90;;
4305;SDS011;2166;49.926;8.608;2022-08-01T10:24:30;4.10;;;1.13;;
4305;SDS011;2166;49.926;8.608;2022-08-01T10:27:01;3.90;;;1.10;;
4305;SDS011;2166;49.926;8.608;2022-08-01T10:29:35;2.88;;;1.38;;
4305;SDS011;2166;49.926;8.608;2022-08-01T10:32:25;3.25;;;1.42;;
4305;SDS011;2166;49.926;8.608;2022-08-01T10:34:54;2.72;;;1.30;;
4305;SDS011;2166;49.926;8.608;2022-08-01T10:37:23;3.45;;;1.27;;
4305;SDS011;2166;49.926;8.608;2022-08-01T10:39:54;2.97;;;1.25;;
4305;SDS011;2166;49.926;8.608;2022-08-01T10:42:43;4.55;;;1.20;;
4305;SDS011;2166;49.926;8.608;2022-08-01T10:45:14;2.13;;;1.00;;
4305;SDS011;2166;49.926;8.608;2022-08-01T10:47:46;3.55;;;1.25;;
4305;SDS011;2166;49.926;8.608;2022-08-01T10:50:27;1.77;;;1.27;;
4305;SDS011;2166;49.926;8.608;2022-08-01T10:53:06;0.98;;;0.77;;
4305;SDS011;2166;49.926;8.608;2022-08-01T10:55:50;3.22;;;0.93;;
4305;SDS011;2166;49.926;8.608;2022-08-01T10:58:28;2.10;;;1.02;;
4305;SDS011;2166;49.926;8.608;2022-08-01T11:01:23;4.35;;;1.08;;
4305;SDS011;2166;49.926;8.608;2022-08-01T11:03:57;1.88;;;0.88;;
4305;SDS011;2166;49.926;8.608;2022-08-01T11:06:36;3.70;;;0.70;;
4305;SDS011;2166;49.926;8.608;2022-08-01T11:09:16;2.47;;;0.50;;
4305;SDS011;2166;49.926;8.608;2022-08-01T11:12:05;1.88;;;0.63;;
4305;SDS011;2166;49.926;8.608;2022-08-01T11:17:57;1.77;;;0.60;;
4305;SDS011;2166;49.926;8.608;2022-08-01T11:20:28;1.58;;;0.77;;
4305;SDS011;2166;49.926;8.608;2022-08-01T11:26:06;0.68;;;0.50;;
4305;SDS011;2166;49.926;8.608;2022-08-01T11:29:15;1.25;;;0.65;;
4305;SDS011;2166;49.926;8.608;2022-08-01T11:31:48;0.95;;;0.60;;
4305;SDS011;2166;49.926;8.608;2022-08-01T11:34:18;0.80;;;0.65;;
4305;SDS011;2166;49.926;8.608;2022-08-01T11:36:47;0.85;;;0.52;;
4305;SDS011;2166;49.926;8.608;2022-08-01T11:39:30;0.80;;;0.80;;
4305;SDS011;2166;49.926;8.608;2022-08-01T11:42:19;1.88;;;0.65;;
4305;SDS011;2166;49.926;8.608;2022-08-01T11:44:50;0.80;;;0.60;;
4305;SDS011;2166;49.926;8.608;2022-08-01T11:47:18;1.40;;;0.63;;
4305;SDS011;2166;49.926;8.608;2022-08-01T11:50:33;2.38;;;0.70;;
4305;SDS011;2166;49.926;8.608;2022-08-01T11:53:05;2.15;;;1.10;;
4305;SDS011;2166;49.926;8.608;2022-08-01T11:55:37;2.67;;;0.68;;
4305;SDS011;2166;49.926;8.608;2022-08-01T11:58:20;0.57;;;0.57;;
4305;SDS011;2166;49.926;8.608;2022-08-01T12:00:57;1.23;;;0.60;;
4305;SDS011;2166;49.926;8.608;2022-08-01T12:03:26;0.80;;;0.55;;
4305;SDS011;2166;49.926;8.608;2022-08-01T12:05:59;2.67;;;0.65;;
4305;SDS011;2166;49.926;8.608;2022-08-01T12:08:28;1.42;;;0.80;;
4305;SDS011;2166;49.926;8.608;2022-08-01T12:10:59;2.13;;;0.55;;
4305;SDS011;2166;49.926;8.608;2022-08-01T12:13:28;1.50;;;0.60;;
4305;SDS011;2166;49.926;8.608;2022-08-01T12:16:11;2.05;;;0.50;;
4305;SDS011;2166;49.926;8.608;2022-08-01T12:18:39;0.68;;;0.50;;
4305;SDS011;2166;49.926;8.608;2022-08-01T12:21:08;1.58;;;0.50;;
4305;SDS011;2166;49.926;8.608;2022-08-01T12:23:36;0.50;;;0.50;;
4305;SDS011;2166;49.926;8.608;2022-08-01T12:26:05;0.80;;;0.50;;
4305;SDS011;2166;49.926;8.608;2022-08-01T12:28:38;0.98;;;0.70;;
4305;SDS011;2166;49.926;8.608;2022-08-01T12:31:07;1.25;;;0.60;;
4305;SDS011;2166;49.926;8.608;2022-08-01T12:33:39;1.05;;;0.45;;
4305;SDS011;2166;49.926;8.608;2022-08-01T12:36:07;1.33;;;0.65;;
4305;SDS011;2166;49.926;8.608;2022-08-01T12:38:40;0.60;;;0.45;;
4305;SDS011;2166;49.926;8.608;2022-08-01T12:41:10;0.80;;;0.43;;
4305;SDS011;2166;49.926;8.608;2022-08-01T12:43:38;1.40;;;0.63;;
4305;SDS011;2166;49.926;8.608;2022-08-01T12:46:07;1.60;;;0.63;;
4305;SDS011;2166;49.926;8.608;2022-08-01T12:48:43;0.85;;;0.73;;
4305;SDS011;2166;49.926;8.608;2022-08-01T12:51:12;1.95;;;0.63;;
4305;SDS011;2166;49.926;8.608;2022-08-01T12:53:40;4.28;;;0.63;;
4305;SDS011;2166;49.926;8.608;2022-08-01T12:56:09;1.10;;;0.70;;
4305;SDS011;2166;49.926;8.608;2022-08-01T12:58:37;0.43;;;0.40;;
4305;SDS011;2166;49.926;8.608;2022-08-01T13:01:07;2.90;;;0.50;;
4305;SDS011;2166;49.926;8.608;2022-08-01T13:03:37;0.55;;;0.40;;
4305;SDS011;2166;49.926;8.608;2022-08-01T13:06:11;1.27;;;0.40;;
4305;SDS011;2166;49.926;8.608;2022-08-01T13:08:42;0.90;;;0.52;;
4305;SDS011;2166;49.926;8.608;2022-08-01T13:11:11;1.30;;;0.90;;
4305;SDS011;2166;49.926;8.608;2022-08-01T13:13:43;1.73;;;0.70;;
4305;SDS011;2166;49.926;8.608;2022-08-01T13:16:14;1.63;;;0.60;;
4305;SDS011;2166;49.926;8.608;2022-08-01T13:19:04;1.38;;;0.70;;
4305;SDS011;2166;49.926;8.608;2022-08-01T13:21:34;1.63;;;0.60;;
4305;SDS011;2166;49.926;8.608;2022-08-01T13:24:23;2.17;;;0.80;;
4305;SDS011;2166;49.926;8.608;2022-08-01T13:26:54;2.97;;;0.68;;
4305;SDS011;2166;49.926;8.608;2022-08-01T13:29:29;0.50;;;0.50;;
4305;SDS011;2166;49.926;8.608;2022-08-01T13:31:59;0.95;;;0.80;;
4305;SDS011;2166;49.926;8.608;2022-08-01T13:34:30;1.92;;;0.70;;
4305;SDS011;2166;49.926;8.608;2022-08-01T13:37:01;2.10;;;0.63;;
4305;SDS011;2166;49.926;8.608;2022-08-01T13:39:33;3.60;;;0.67;;
4305;SDS011;2166;49.926;8.608;2022-08-01T13:42:13;7.88;;;0.60;;
4305;SDS011;2166;49.926;8.608;2022-08-01T13:44:44;2.00;;;0.85;;
4305;SDS011;2166;49.926;8.608;2022-08-01T13:47:13;3.53;;;0.80;;
4305;SDS011;2166;49.926;8.608;2022-08-01T13:49:42;1.42;;;0.57;;
4305;SDS011;2166;49.926;8.608;2022-08-01T13:52:12;2.55;;;0.63;;
4305;SDS011;2166;49.926;8.608;2022-08-01T13:54:40;1.27;;;0.80;;
4305;SDS011;2166;49.926;8.608;2022-08-01T13:57:08;2.28;;;0.85;;
4305;SDS011;2166;49.926;8.608;2022-08-01T13:59:37;0.70;;;0.50;;
4305;SDS011;2166;49.926;8.608;2022-08-01T14:02:05;1.27;;;0.73;;
4305;SDS011;2166;49.926;8.608;2022-08-01T14:04:34;2.72;;;0.70;;
4305;SDS011;2166;49.926;8.608;2022-08-01T14:07:02;3.33;;;0.70;;
4305;SDS011;2166;49.926;8.608;2022-08-01T14:09:38;5.13;;;0.70;;
4305;SDS011;2166;49.926;8.608;2022-08-01T14:12:26;0.70;;;0.63;;
4305;SDS011;2166;49.926;8.608;2022-08-01T14:14:55;1.95;;;0.60;;
4305;SDS011;2166;49.926;8.608;2022-08-01T14:17:23;3.05;;;0.98;;
4305;SDS011;2166;49.926;8.608;2022-08-01T14:19:53;1.42;;;0.80;;
4305;SDS011;2166;49.926;8.608;2022-08-01T14:22:22;3.17;;;0.90;;
4305;SDS011;2166;49.926;8.608;2022-08-01T14:24:52;1.55;;;0.85;;
4305;SDS011;2166;49.926;8.608;2022-08-01T14:27:26;1.65;;;0.73;;
4305;SDS011;2166;49.926;8.608;2022-08-01T14:29:57;2.92;;;0.80;;
4305;SDS011;2166;49.926;8.608;2022-08-01T14:32:29;2.50;;;0.70;;
4305;SDS011;2166;49.926;8.608;2022-08-01T14:34:59;5.45;;;0.82;;
4305;SDS011;2166;49.926;8.608;2022-08-01T14:37:27;1.23;;;0.82;;
4305;SDS011;2166;49.926;8.608;2022-08-01T14:40:05;1.42;;;0.77;;
4305;SDS011;2166;49.926;8.608;2022-08-01T14:42:35;1.48;;;0.95;;
4305;SDS011;2166;49.926;8.608;2022-08-01T14:45:05;1.17;;;0.75;;
4305;SDS011;2166;49.926;8.608;2022-08-01T14:47:35;2.30;;;0.90;;
4305;SDS011;2166;49.926;8.608;2022-08-01T14:50:04;1.33;;;0.90;;
4305;SDS011;2166;49.926;8.608;2022-08-01T14:52:34;2.20;;;0.98;;
4305;SDS011;2166;49.926;8.608;2022-08-01T14:55:05;2.33;;;1.08;;
4305;SDS011;2166;49.926;8.608;2022-08-01T14:57:35;2.10;;;0.60;;
4305;SDS011;2166;49.926;8.608;2022-08-01T15:00:04;2.22;;;0.80;;
4305;SDS011;2166;49.926;8.608;2022-08-01T15:02:36;3.47;;;1.00;;
4305;SDS011;2166;49.926;8.608;2022-08-01T15:05:05;4.88;;;0.85;;
4305;SDS011;2166;49.926;8.608;2022-08-01T15:07:34;3.33;;;0.93;;
4305;SDS011;2166;49.926;8.608;2022-08-01T15:10:19;2.50;;;0.90;;
4305;SDS011;2166;49.926;8.608;2022-08-01T15:12:47;2.70;;;0.93;;
4305;SDS011;2166;49.926;8.608;2022-08-01T15:15:16;3.63;;;1.00;;
4305;SDS011;2166;49.926;8.608;2022-08-01T15:17:45;4.70;;;1.33;;
4305;SDS011;2166;49.926;8.608;2022-08-01T15:20:13;3.40;;;1.42;;
4305;SDS011;2166;49.926;8.608;2022-08-01T15:22:42;2.33;;;1.17;;
4305;SDS011;2166;49.926;8.608;2022-08-01T15:25:10;1.30;;;1.20;;
4305;SDS011;2166;49.926;8.608;2022-08-01T15:27:40;1.50;;;1.00;;
4305;SDS011;2166;49.926;8.608;2022-08-01T15:30:08;2.05;;;0.90;;
4305;SDS011;2166;49.926;8.608;2022-08-01T15:32:37;3.53;;;1.83;;
4305;SDS011;2166;49.926;8.608;2022-08-01T15:35:06;11.32;;;1.48;;
4305;SDS011;2166;49.926;8.608;2022-08-01T15:37:36;6.50;;;1.60;;
4305;SDS011;2166;49.926;8.608;2022-08-01T15:40:08;3.20;;;1.77;;
4305;SDS011;2166;49.926;8.608;2022-08-01T15:42:39;3.22;;;1.30;;
4305;SDS011;2166;49.926;8.608;2022-08-01T15:45:08;4.78;;;1.90;;
4305;SDS011;2166;49.926;8.608;2022-08-01T15:47:56;9.70;;;2.33;;
4305;SDS011;2166;49.926;8.608;2022-08-01T15:50:24;4.72;;;2.22;;